Time;durP1;ratioP1;P1;durP2;ratioP2;P2;SDS_P1;SDS_P2;PMS_P1;PMS_P2;Temp;Humidity;BMP_temperature;BMP_pressure;BME280_temperature;BME280_humidity;BME280_pressure;Samples;Min_cycle;Max_cycle;Signal;HPM_P1;HPM_P2
2022/10/26 00:01:13;;;;;;;11.10;6.30;;;;;;;12.06;81.34;101329.09;1855733;76;25740;-61
2022/10/26 00:03:44;;;;;;;18.92;8.15;;;;;;;12.01;81.32;101337.58;1852955;77;25673;-62
2022/10/26 00:06:20;;;;;;;17.07;8.80;;;;;;;11.99;81.95;101333.31;1853862;76;27467;-63
2022/10/26 00:08:48;;;;;;;21.35;8.25;;;;;;;11.96;82.90;101332.22;1823524;77;26355;-62
2022/10/26 00:11:17;;;;;;;15.50;7.80;;;;;;;11.95;82.84;101334.55;1840819;76;25468;-63
2022/10/26 00:13:46;;;;;;;17.02;8.58;;;;;;;11.96;83.01;101331.70;1816408;77;25877;-63
2022/10/26 00:16:23;;;;;;;14.68;8.18;;;;;;;11.95;82.50;101338.59;1816451;79;25762;-62
2022/10/26 00:18:51;;;;;;;19.82;8.58;;;;;;;11.90;82.63;101334.94;1816352;79;28281;-61
2022/10/26 00:21:18;;;;;;;14.07;8.53;;;;;;;11.89;82.63;101337.27;1816936;77;25912;-61
2022/10/26 00:23:45;;;;;;;20.00;8.68;;;;;;;11.88;82.57;101344.99;1816656;77;25774;-62
2022/10/26 00:26:12;;;;;;;11.90;7.30;;;;;;;11.87;82.45;101339.23;1816347;79;25711;-62
2022/10/26 00:28:40;;;;;;;10.88;7.08;;;;;;;11.85;82.44;101340.72;1852975;77;25740;-61
2022/10/26 00:31:12;;;;;;;13.15;6.58;;;;;;;11.84;82.26;101340.83;1856327;77;28282;-62
2022/10/26 00:33:39;;;;;;;9.83;6.10;;;;;;;11.78;81.94;101335.50;1856329;77;25589;-62
2022/10/26 00:36:12;;;;;;;17.50;8.05;;;;;;;11.77;81.92;101343.22;1856181;77;25801;-61
2022/10/26 00:38:44;;;;;;;16.40;8.33;;;;;;;11.70;82.09;101340.66;1855953;77;25657;-62
2022/10/26 00:41:14;;;;;;;10.10;7.53;;;;;;;11.65;82.47;101342.42;1837785;77;25732;-61
2022/10/26 00:43:41;;;;;;;18.75;7.97;;;;;;;11.66;82.73;101352.69;1816495;79;28105;-61
2022/10/26 00:46:16;;;;;;;12.28;7.20;;;;;;;11.67;82.85;101346.32;1816107;79;25805;-62
2022/10/26 00:48:48;;;;;;;11.25;6.67;;;;;;;11.64;82.35;101354.18;1815961;79;25610;-62
2022/10/26 00:51:27;;;;;;;15.03;7.37;;;;;;;11.66;82.64;101351.34;1843427;77;25702;-62
2022/10/26 00:53:55;;;;;;;14.73;9.55;;;;;;;11.70;82.71;101346.91;1852645;77;25755;-62
2022/10/26 00:56:23;;;;;;;23.40;8.58;;;;;;;11.71;82.79;101354.02;1819900;77;27002;-61
2022/10/26 00:58:51;;;;;;;23.42;7.55;;;;;;;11.71;82.82;101342.37;1819807;77;25788;-62
2022/10/26 01:01:18;;;;;;;20.48;7.80;;;;;;;11.72;82.91;101344.08;1816485;79;25789;-61
2022/10/26 01:03:46;;;;;;;20.85;7.65;;;;;;;11.69;82.46;101340.31;1836434;77;25650;-61
2022/10/26 01:06:15;;;;;;;19.73;7.33;;;;;;;11.69;82.45;101342.51;1832707;77;25806;-61
2022/10/26 01:08:43;;;;;;;22.87;8.00;;;;;;;11.70;82.43;101344.22;1819142;77;27462;-61
2022/10/26 01:11:11;;;;;;;12.68;7.37;;;;;;;11.70;82.28;101346.91;1820955;77;25417;-62
2022/10/26 01:13:41;;;;;;;17.17;7.92;;;;;;;11.71;82.11;101349.10;1817674;77;26133;-62
2022/10/26 01:17:03;;;;;;;12.33;7.85;;;;;;;11.73;82.13;101343.97;1816092;79;25793;-62
2022/10/26 01:19:52;;;;;;;14.13;7.58;;;;;;;11.76;82.10;101342.85;1822808;77;25811;-62
2022/10/26 01:22:27;;;;;;;14.23;7.28;;;;;;;11.81;81.96;101339.26;1822384;77;27878;-62
2022/10/26 01:25:14;;;;;;;15.20;7.47;;;;;;;11.81;81.94;101339.77;1822873;78;25773;-62
2022/10/26 01:27:53;;;;;;;14.63;7.33;;;;;;;11.86;81.99;101342.44;1822839;78;25784;-62
2022/10/26 01:30:38;;;;;;;11.95;7.72;;;;;;;11.87;81.58;101346.84;1854395;77;25784;-62
2022/10/26 01:33:16;;;;;;;16.35;7.40;;;;;;;11.86;81.41;101341.09;1856547;77;25766;-62
2022/10/26 01:36:06;;;;;;;15.45;7.67;;;;;;;11.84;81.11;101343.05;1856416;77;27627;-63
2022/10/26 01:38:57;;;;;;;14.13;7.78;;;;;;;11.80;81.15;101330.80;1856340;77;25725;-62
2022/10/26 01:41:51;;;;;;;17.12;8.15;;;;;;;11.79;81.40;101329.59;1856792;77;25674;-62
2022/10/26 01:44:42;;;;;;;13.15;7.55;;;;;;;11.83;81.67;101337.30;1856365;77;25768;-62
2022/10/26 01:47:13;;;;;;;13.93;7.62;;;;;;;11.85;82.24;101332.63;1854857;77;25631;-61
2022/10/26 01:49:45;;;;;;;14.13;7.87;;;;;;;11.73;82.82;101339.05;1855305;76;27503;-62
2022/10/26 01:52:13;;;;;;;23.57;8.57;;;;;;;11.59;83.70;101345.13;1821203;78;25859;-61
2022/10/26 01:54:40;;;;;;;14.90;8.90;;;;;;;11.49;84.67;101351.40;1821618;78;25698;-63
2022/10/26 01:57:11;;;;;;;16.48;7.22;;;;;;;11.35;86.59;101358.80;1821397;78;25667;-63
2022/10/26 02:00:03;;;;;;;15.60;8.20;;;;;;;11.25;87.88;101353.30;1821518;78;25776;-62
2022/10/26 02:02:57;;;;;;;13.68;7.70;;;;;;;11.20;87.83;101352.84;1817642;77;27555;-62
2022/10/26 02:05:53;;;;;;;14.18;8.15;;;;;;;11.19;88.38;101352.47;1816151;79;25639;-62
2022/10/26 02:09:00;;;;;;;17.80;8.83;;;;;;;11.22;87.56;101355.39;1815682;77;25734;-62
2022/10/26 02:11:40;;;;;;;17.55;8.58;;;;;;;11.26;87.36;101346.09;1816178;79;26266;-62
2022/10/26 02:14:28;;;;;;;16.65;8.15;;;;;;;11.30;87.69;101350.23;1816122;79;26116;-62
2022/10/26 02:17:03;;;;;;;13.28;8.18;;;;;;;11.22;88.24;101352.23;1812077;79;27547;-62
2022/10/26 02:19:50;;;;;;;14.80;8.03;;;;;;;11.19;88.34;101348.94;1817193;77;25928;-62
2022/10/26 02:22:22;;;;;;;16.35;9.30;;;;;;;11.19;88.22;101348.94;1824705;77;25831;-62
2022/10/26 02:24:52;;;;;;;19.07;8.70;;;;;;;11.21;88.03;101346.95;1825983;76;25797;-61
2022/10/26 02:27:33;;;;;;;17.15;8.23;;;;;;;11.32;88.04;101348.27;1832783;76;25727;-62
2022/10/26 02:30:02;;;;;;;15.13;8.38;;;;;;;11.43;87.94;101341.52;1865585;76;26910;-62
2022/10/26 02:32:34;;;;;;;19.73;8.20;;;;;;;11.54;87.84;101340.61;1865695;76;26401;-62
2022/10/26 02:35:03;;;;;;;12.78;8.98;;;;;;;11.66;87.75;101340.56;1866008;76;25617;-62
2022/10/26 02:37:33;;;;;;;17.23;8.60;;;;;;;11.79;87.74;101345.27;1865736;76;25728;-60
2022/10/26 02:40:08;;;;;;;14.07;8.20;;;;;;;11.88;87.28;101346.34;1865506;76;25749;-62
2022/10/26 02:42:37;;;;;;;14.00;8.40;;;;;;;11.94;86.79;101350.36;1865983;76;28750;-61
2022/10/26 02:45:09;;;;;;;14.07;7.95;;;;;;;11.96;86.17;101355.13;1831517;76;25913;-62
2022/10/26 02:47:35;;;;;;;15.75;7.28;;;;;;;11.99;86.08;101354.88;1825239;78;25744;-62
2022/10/26 02:50:04;;;;;;;16.07;7.83;;;;;;;12.05;86.08;101354.38;1832535;76;25892;-62
2022/10/26 02:53:03;;;;;;;14.20;8.25;;;;;;;12.16;86.32;101362.37;1865647;76;25793;-62
2022/10/26 02:55:36;;;;;;;9.88;6.95;;;;;;;12.26;86.28;101366.98;1865457;76;29608;-61
2022/10/26 02:58:07;;;;;;;14.28;8.20;;;;;;;12.34;86.09;101364.47;1865215;76;25764;-61
2022/10/26 03:00:35;;;;;;;12.20;6.92;;;;;;;12.41;85.50;101370.20;1865928;76;25792;-60
2022/10/26 03:03:04;;;;;;;12.85;8.35;;;;;;;12.43;85.41;101370.41;1829933;77;25740;-62
2022/10/26 03:05:32;;;;;;;15.58;7.50;;;;;;;12.49;85.50;101375.77;1851948;77;25775;-62
2022/10/26 03:08:00;;;;;;;13.55;7.47;;;;;;;12.55;85.35;101382.48;1851630;77;27424;-61
2022/10/26 03:10:28;;;;;;;11.25;7.35;;;;;;;12.60;85.31;101381.58;1860285;76;25823;-61
2022/10/26 03:12:54;;;;;;;14.70;7.33;;;;;;;12.63;85.10;101386.23;1865602;76;25707;-62
2022/10/26 03:15:22;;;;;;;18.48;7.35;;;;;;;12.70;85.14;101390.58;1864550;76;25801;-62
2022/10/26 03:17:48;;;;;;;12.33;7.97;;;;;;;12.74;84.98;101385.77;1865830;76;25779;-62
2022/10/26 03:20:15;;;;;;;15.20;8.05;;;;;;;12.78;84.68;101392.61;1866172;76;27411;-63
2022/10/26 03:22:42;;;;;;;12.47;8.08;;;;;;;12.75;83.98;101395.09;1856249;76;25751;-63
2022/10/26 03:25:09;;;;;;;18.07;7.78;;;;;;;12.73;84.08;101395.72;1856623;77;25657;-62
2022/10/26 03:27:36;;;;;;;12.37;7.55;;;;;;;12.71;83.92;101396.84;1845686;77;25674;-62
2022/10/26 03:30:07;;;;;;;14.10;7.45;;;;;;;12.70;83.95;101392.44;1816464;77;25824;-62
2022/10/26 03:32:33;;;;;;;16.12;7.62;;;;;;;12.70;84.08;101393.28;1816106;79;27380;-62
2022/10/26 03:35:00;;;;;;;20.50;7.33;;;;;;;12.68;84.01;101393.42;1831972;77;26210;-63
2022/10/26 03:37:28;;;;;;;10.75;6.40;;;;;;;12.73;84.14;101390.83;1854078;77;25739;-62
2022/10/26 03:39:55;;;;;;;15.28;7.60;;;;;;;12.73;83.80;101396.23;1853873;77;25833;-63
2022/10/26 03:42:24;;;;;;;11.85;7.25;;;;;;;12.72;83.93;101397.22;1854149;77;25721;-61
2022/10/26 03:44:50;;;;;;;12.58;6.17;;;;;;;12.70;84.09;101393.28;1831316;77;28617;-63
2022/10/26 03:47:18;;;;;;;10.28;5.97;;;;;;;12.70;84.33;101391.93;1831243;77;25680;-62
2022/10/26 03:49:47;;;;;;;9.53;6.00;;;;;;;12.70;85.05;101397.33;1851778;77;25676;-61
2022/10/26 03:52:15;;;;;;;9.55;5.97;;;;;;;12.66;85.02;101405.35;1811214;78;25724;-61
2022/10/26 03:54:42;;;;;;;13.15;6.22;;;;;;;12.64;84.66;101404.62;1811102;77;25884;-62
2022/10/26 03:57:10;;;;;;;12.60;6.72;;;;;;;12.63;84.66;101406.95;1811108;77;27475;-61
2022/10/26 03:59:37;;;;;;;12.33;7.37;;;;;;;12.63;84.66;101403.78;1811069;77;25725;-62
2022/10/26 04:02:04;;;;;;;10.25;5.85;;;;;;;12.67;84.87;101407.06;1840687;77;25769;-63
2022/10/26 04:04:32;;;;;;;9.68;6.35;;;;;;;12.76;85.08;101408.08;1856374;77;25747;-63
2022/10/26 04:06:58;;;;;;;13.05;7.42;;;;;;;12.81;84.97;101413.95;1855882;77;25323;-62
2022/10/26 04:09:27;;;;;;;8.45;6.12;;;;;;;12.85;84.88;101415.38;1820820;78;26301;-60
2022/10/26 04:11:54;;;;;;;8.65;5.35;;;;;;;12.91;84.89;101419.38;1838598;77;25771;-62
2022/10/26 04:14:21;;;;;;;12.53;6.22;;;;;;;12.91;84.67;101421.58;1823015;77;26673;-63
2022/10/26 04:16:49;;;;;;;7.22;5.05;;;;;;;12.84;84.68;101433.91;1816571;77;26160;-62
2022/10/26 04:19:16;;;;;;;7.87;5.20;;;;;;;12.74;84.97;101431.17;1816121;79;25799;-63
2022/10/26 04:21:43;;;;;;;12.28;5.08;;;;;;;12.66;85.72;101429.14;1820297;78;28373;-62
2022/10/26 04:24:10;;;;;;;12.95;5.65;;;;;;;12.62;85.42;101431.77;1825371;78;25844;-63
2022/10/26 04:26:38;;;;;;;8.18;6.17;;;;;;;12.63;85.91;101429.91;1825127;77;25472;-63
2022/10/26 04:29:05;;;;;;;7.47;5.53;;;;;;;12.64;86.06;101427.06;1829496;76;25735;-62
2022/10/26 04:31:33;;;;;;;8.55;5.53;;;;;;;12.68;85.90;101431.22;1858461;76;27349;-62
2022/10/26 04:34:02;;;;;;;11.70;5.58;;;;;;;12.72;86.05;101432.31;1858794;76;27460;-63
2022/10/26 04:36:30;;;;;;;8.90;5.55;;;;;;;12.71;86.09;101436.83;1863066;76;25699;-62
2022/10/26 04:39:01;;;;;;;9.83;5.45;;;;;;;12.68;86.49;101429.87;1825106;78;25666;-64
2022/10/26 04:41:26;;;;;;;14.83;5.92;;;;;;;12.67;86.44;101434.06;1825130;78;25765;-63
2022/10/26 04:43:53;;;;;;;14.13;5.45;;;;;;;12.68;86.45;101431.22;1825379;78;25488;-63
2022/10/26 04:46:20;;;;;;;11.00;6.42;;;;;;;12.72;86.51;101427.75;1825339;78;27446;-63
2022/10/26 04:48:48;;;;;;;10.98;5.83;;;;;;;12.75;86.29;101440.12;1826250;76;26691;-62
2022/10/26 04:51:17;;;;;;;13.55;8.28;;;;;;;12.75;86.60;101440.12;1830698;76;25809;-63
2022/10/26 04:53:44;;;;;;;9.38;6.00;;;;;;;12.79;86.33;101444.27;1830492;78;26115;-63
2022/10/26 04:56:11;;;;;;;19.50;5.97;;;;;;;12.86;86.48;101442.74;1838231;76;25793;-64
2022/10/26 04:58:39;;;;;;;12.13;6.03;;;;;;;12.86;86.62;101445.44;1851993;76;27443;-64
2022/10/26 05:01:12;;;;;;;11.20;5.90;;;;;;;12.83;86.75;101449.27;1824908;78;27296;-63
2022/10/26 05:03:39;;;;;;;17.93;7.30;;;;;;;12.84;86.62;101445.59;1829652;76;25725;-65
2022/10/26 05:06:06;;;;;;;8.70;5.40;;;;;;;12.89;86.56;101447.01;1876690;76;25790;-64
2022/10/26 05:08:33;;;;;;;12.28;5.75;;;;;;;12.97;86.56;101440.44;1866107;76;25759;-63
2022/10/26 05:11:00;;;;;;;13.08;6.20;;;;;;;13.03;86.39;101448.02;1865723;76;27464;-64
2022/10/26 05:13:27;;;;;;;12.33;6.03;;;;;;;13.07;86.09;101448.09;1865809;76;25792;-63
2022/10/26 05:15:55;;;;;;;10.63;5.20;;;;;;;13.11;85.92;101451.38;1863487;76;25767;-64
2022/10/26 05:18:22;;;;;;;11.80;6.35;;;;;;;13.11;85.76;101451.38;1851719;77;25729;-64
2022/10/26 05:20:52;;;;;;;13.58;6.15;;;;;;;13.09;85.83;101456.92;1851600;76;25468;-63
2022/10/26 05:23:20;;;;;;;10.45;6.47;;;;;;;13.08;86.05;101459.25;1843603;75;27426;-62
2022/10/26 05:25:48;;;;;;;11.45;6.72;;;;;;;13.02;86.40;101463.86;1783882;79;25991;-64
2022/10/26 05:28:17;;;;;;;13.55;6.85;;;;;;;13.03;86.41;101457.95;1781206;80;25813;-62
2022/10/26 05:30:46;;;;;;;10.45;6.08;;;;;;;13.06;86.54;101463.09;1780537;80;25625;-62
2022/10/26 05:33:13;;;;;;;9.20;5.67;;;;;;;13.06;86.57;101458.53;1781232;80;25817;-62
2022/10/26 05:35:41;;;;;;;12.50;7.10;;;;;;;13.08;86.64;101466.52;1779706;80;27543;-61
2022/10/26 05:38:18;;;;;;;19.30;7.05;;;;;;;13.03;86.82;101464.70;1794756;79;25805;-63
2022/10/26 05:40:51;;;;;;;10.43;6.12;;;;;;;12.99;86.99;101471.75;1794607;79;25757;-63
2022/10/26 05:43:20;;;;;;;6.95;5.20;;;;;;;12.92;87.42;101477.30;1794879;79;25770;-62
2022/10/26 05:45:51;;;;;;;13.75;6.53;;;;;;;12.88;87.65;101487.15;1764670;79;25902;-64
2022/10/26 05:48:20;;;;;;;12.73;5.90;;;;;;;12.84;87.70;101491.48;1794017;79;27456;-64
2022/10/26 05:50:47;;;;;;;13.62;6.10;;;;;;;12.83;87.80;101492.48;1793363;79;25798;-62
2022/10/26 05:53:14;;;;;;;10.32;5.87;;;;;;;12.85;87.69;101496.38;1794634;79;25822;-59
2022/10/26 05:55:43;;;;;;;14.13;6.40;;;;;;;12.87;87.54;101488.14;1794489;79;25471;-57
2022/10/26 05:58:13;;;;;;;13.28;5.83;;;;;;;12.90;87.44;101487.41;1794746;79;26407;-58
2022/10/26 06:00:57;;;;;;;12.00;6.42;;;;;;;12.91;87.55;101495.84;1794433;79;27470;-58
2022/10/26 06:03:54;;;;;;;17.30;6.25;;;;;;;12.91;87.70;101494.48;1793977;79;25834;-58
2022/10/26 06:06:24;;;;;;;13.48;6.00;;;;;;;12.88;87.84;101499.30;1778749;79;25540;-58
2022/10/26 06:08:53;;;;;;;13.68;5.83;;;;;;;12.90;87.89;101503.61;1800665;78;25798;-59
2022/10/26 06:11:21;;;;;;;8.88;5.25;;;;;;;12.91;87.87;101508.50;1769576;79;25794;-59
2022/10/26 06:13:50;;;;;;;16.12;6.78;;;;;;;12.94;87.67;101510.95;1768964;79;27462;-57
2022/10/26 06:16:34;;;;;;;13.95;6.78;;;;;;;12.98;87.43;101509.19;1750884;80;25479;-57
2022/10/26 06:19:25;;;;;;;13.28;6.00;;;;;;;13.04;87.27;101509.62;1777093;79;25843;-57
2022/10/26 06:22:12;;;;;;;11.43;6.28;;;;;;;13.12;86.74;101506.63;1760352;81;25959;-68
2022/10/26 06:25:12;;;;;;;18.85;5.67;;;;;;;13.22;86.12;101516.62;1768569;79;25811;-65
2022/10/26 06:28:24;;;;;;;10.75;5.50;;;;;;;13.23;85.09;101522.36;1795517;79;27560;-62
2022/10/26 06:30:51;;;;;;;14.18;6.25;;;;;;;13.28;84.82;101520.97;1796893;79;27307;-61
2022/10/26 06:33:19;;;;;;;12.28;6.03;;;;;;;13.34;84.16;101530.39;1797239;79;25755;-62
2022/10/26 06:35:52;;;;;;;9.70;6.25;;;;;;;13.39;84.04;101526.83;1797165;79;25761;-62
2022/10/26 06:38:22;;;;;;;17.23;7.12;;;;;;;13.45;83.75;101532.16;1784809;79;25859;-62
2022/10/26 06:40:52;;;;;;;13.48;7.10;;;;;;;13.50;83.43;101533.10;1771448;79;27331;-63
2022/10/26 06:43:29;;;;;;;14.15;6.55;;;;;;;13.57;83.10;101528.88;1799409;79;25698;-65
2022/10/26 06:46:16;;;;;;;17.45;6.30;;;;;;;13.61;82.42;101536.58;1798652;79;25761;-64
2022/10/26 06:48:58;;;;;;;13.30;6.87;;;;;;;13.67;82.53;101531.61;1798826;79;25802;-64
2022/10/26 06:51:27;;;;;;;12.30;5.78;;;;;;;13.73;81.50;101535.97;1756039;80;25754;-65
2022/10/26 06:54:06;;;;;;;15.80;6.22;;;;;;;13.75;80.85;101544.81;1786727;80;28248;-65
2022/10/26 06:56:35;;;;;;;12.90;6.22;;;;;;;13.80;81.07;101543.52;1791429;79;25762;-64
2022/10/26 06:59:17;;;;;;;9.40;5.42;;;;;;;13.93;81.23;101544.14;1799291;79;25746;-66
2022/10/26 07:01:44;;;;;;;9.08;5.20;;;;;;;14.03;80.32;101553.09;1739080;79;25649;-67
2022/10/26 07:04:11;;;;;;;11.73;5.90;;;;;;;14.17;80.23;101551.00;1780763;79;25314;-65
2022/10/26 07:06:38;;;;;;;15.72;5.75;;;;;;;14.30;80.05;101554.27;1781249;79;28518;-66
2022/10/26 07:09:05;;;;;;;10.88;5.53;;;;;;;14.42;79.58;101556.84;1798945;79;25788;-67
2022/10/26 07:11:34;;;;;;;11.70;5.03;;;;;;;14.56;79.84;101555.08;1780333;79;26061;-66
2022/10/26 07:14:01;;;;;;;9.30;5.40;;;;;;;14.73;79.53;101556.22;1785057;79;25864;-67
2022/10/26 07:16:28;;;;;;;8.48;5.00;;;;;;;14.97;78.69;101552.21;1788848;80;25862;-65
2022/10/26 07:18:55;;;;;;;14.00;5.05;;;;;;;15.18;78.59;101560.97;1788928;80;27039;-65
2022/10/26 07:21:22;;;;;;;13.72;4.83;;;;;;;15.37;78.21;101558.36;1792621;79;25611;-68
2022/10/26 07:23:49;;;;;;;11.20;4.75;;;;;;;15.51;77.59;101551.09;1741875;80;25854;-64
2022/10/26 07:28:50;;;;;;;9.30;4.65;;;;;;;15.74;76.67;101558.33;1769853;79;32457;-64
2022/10/26 07:31:17;;;;;;;11.85;4.70;;;;;;;15.74;73.73;101554.26;1760111;80;27852;-64
2022/10/26 07:33:45;;;;;;;10.82;5.30;;;;;;;15.77;73.79;101557.16;1766639;80;25802;-64
2022/10/26 07:36:12;;;;;;;10.23;4.75;;;;;;;15.80;73.30;101554.16;1764863;80;25438;-63
2022/10/26 07:38:41;;;;;;;10.23;4.97;;;;;;;15.93;73.34;101557.38;1765451;81;25751;-64
2022/10/26 07:41:08;;;;;;;10.43;5.00;;;;;;;15.99;72.98;101560.52;1773461;80;26198;-64
2022/10/26 07:43:35;;;;;;;14.10;5.90;;;;;;;16.05;72.71;101553.95;1775797;79;27474;-64
2022/10/26 07:46:03;;;;;;;16.42;6.22;;;;;;;16.10;72.33;101554.84;1783807;80;25754;-64
2022/10/26 07:48:30;;;;;;;17.65;5.45;;;;;;;16.13;71.44;101555.91;1782131;80;25791;-63
2022/10/26 07:51:01;;;;;;;12.18;4.53;;;;;;;16.21;71.63;101553.27;1770650;79;26614;-64
2022/10/26 07:53:28;;;;;;;14.10;4.83;;;;;;;16.37;70.98;101553.94;1772056;80;25817;-63
2022/10/26 07:55:57;;;;;;;13.53;5.05;;;;;;;16.48;69.71;101552.84;1782264;80;27597;-64
2022/10/26 07:58:26;;;;;;;12.33;5.03;;;;;;;16.62;69.36;101556.03;1769340;79;25871;-65
2022/10/26 08:00:54;;;;;;;16.30;5.35;;;;;;;16.62;67.18;101569.61;1774579;80;26027;-63
2022/10/26 08:03:21;;;;;;;10.30;4.83;;;;;;;16.71;67.08;101563.23;1782907;80;25676;-64
2022/10/26 08:05:52;;;;;;;15.40;5.03;;;;;;;16.85;67.46;101557.22;1780060;80;25785;-64
2022/10/26 08:08:19;;;;;;;11.53;5.22;;;;;;;16.93;68.16;101568.70;1748437;80;27414;-65
2022/10/26 08:10:47;;;;;;;13.55;4.80;;;;;;;17.00;66.87;101568.41;1765013;80;25794;-64
2022/10/26 08:13:14;;;;;;;9.55;4.37;;;;;;;17.16;66.75;101559.52;1765528;80;25766;-64
2022/10/26 08:15:42;;;;;;;15.15;4.97;;;;;;;17.35;66.41;101561.63;1765541;80;26430;-64
2022/10/26 08:18:09;;;;;;;8.75;4.03;;;;;;;17.52;65.70;101558.02;1765621;80;25529;-65
2022/10/26 08:20:38;;;;;;;13.60;5.60;;;;;;;17.62;64.28;101555.15;1718520;81;26272;-64
2022/10/26 08:23:05;;;;;;;15.40;5.05;;;;;;;17.66;64.84;101558.39;1765444;80;25902;-64
2022/10/26 08:25:33;;;;;;;20.82;5.47;;;;;;;17.77;64.76;101555.38;1787583;80;25809;-64
2022/10/26 08:28:04;;;;;;;8.08;4.35;;;;;;;17.95;64.38;101549.81;1793272;80;25907;-64
2022/10/26 08:30:32;;;;;;;11.80;4.92;;;;;;;18.22;62.94;101551.10;1793814;80;25681;-64
2022/10/26 08:33:05;;;;;;;10.08;4.85;;;;;;;18.41;61.88;101548.56;1792917;80;27432;-65
2022/10/26 08:35:33;;;;;;;12.33;4.28;;;;;;;18.50;60.67;101548.07;1792297;79;25789;-65
2022/10/26 08:38:00;;;;;;;17.25;5.00;;;;;;;18.61;61.26;101549.07;1790785;80;25641;-65
2022/10/26 08:40:39;;;;;;;13.30;4.83;;;;;;;18.80;60.71;101547.89;1789440;80;26183;-65
2022/10/26 08:43:20;;;;;;;14.30;4.03;;;;;;;18.88;59.86;101545.64;1779284;79;25765;-64
2022/10/26 08:45:58;;;;;;;8.93;4.37;;;;;;;19.04;58.86;101542.95;1787380;79;28586;-64
2022/10/26 08:48:30;;;;;;;14.03;4.17;;;;;;;19.29;59.45;101549.70;1785091;79;26225;-64
2022/10/26 08:51:02;;;;;;;13.13;4.05;;;;;;;19.74;57.48;101556.02;1787151;79;25713;-64
2022/10/26 08:53:43;;;;;;;10.27;3.90;;;;;;;20.29;56.60;101552.31;1762027;80;25798;-64
2022/10/26 08:56:38;;;;;;;8.58;3.70;;;;;;;21.39;52.72;101552.84;1760439;81;25806;-66
2022/10/26 08:59:10;;;;;;;15.40;4.12;;;;;;;21.04;54.05;101562.63;1765780;80;27484;-64
2022/10/26 09:01:40;;;;;;;14.68;4.37;;;;;;;20.75;54.39;101558.81;1782003;80;26399;-64
2022/10/26 09:04:12;;;;;;;9.38;3.20;;;;;;;20.52;54.15;101575.20;1793380;79;25470;-63
2022/10/26 09:07:14;;;;;;;10.10;3.75;;;;;;;20.63;53.41;101570.16;1762159;80;26101;-64
2022/10/26 09:10:16;;;;;;;7.42;3.37;;;;;;;20.79;52.07;101566.97;1779654;80;25481;-65
2022/10/26 09:13:09;;;;;;;15.75;3.70;;;;;;;21.62;52.27;101571.61;1743014;80;28193;-65
2022/10/26 09:16:12;;;;;;;11.78;4.40;;;;;;;21.19;49.68;101581.80;1770033;79;26463;-65
2022/10/26 09:19:13;;;;;;;9.00;3.20;;;;;;;20.80;52.04;101576.88;1763676;80;25774;-64
2022/10/26 09:22:07;;;;;;;12.65;3.67;;;;;;;21.05;51.95;101590.31;1792884;77;27646;-64
2022/10/26 09:24:39;;;;;;;8.35;3.40;;;;;;;20.70;50.73;101594.02;1786297;80;25754;-66
2022/10/26 09:27:28;;;;;;;7.80;3.62;;;;;;;20.53;52.05;101589.21;1761268;79;27510;-64
2022/10/26 09:29:59;;;;;;;11.80;3.55;;;;;;;20.25;52.46;101593.31;1772676;79;25809;-63
2022/10/26 09:32:31;;;;;;;12.40;3.95;;;;;;;20.10;52.49;101577.36;1813931;78;25738;-64
2022/10/26 09:35:07;;;;;;;8.85;2.77;;;;;;;20.00;52.93;101574.34;1813659;79;25692;-65
2022/10/26 09:37:44;;;;;;;9.65;3.05;;;;;;;19.92;53.61;101585.80;1810751;78;25708;-65
2022/10/26 09:40:16;;;;;;;13.93;3.52;;;;;;;19.73;53.81;101580.24;1753854;81;28212;-64
2022/10/26 09:42:54;;;;;;;15.73;4.10;;;;;;;19.58;54.71;101582.36;1786859;80;25527;-64
2022/10/26 09:45:40;;;;;;;14.65;3.50;;;;;;;19.42;54.42;101581.89;1788525;78;25790;-64
2022/10/26 09:48:32;;;;;;;8.65;3.08;;;;;;;19.27;54.96;101583.64;1818934;78;25752;-64
2022/10/26 09:50:59;;;;;;;23.15;3.98;;;;;;;19.41;54.99;101586.17;1800567;78;25253;-63
2022/10/26 09:53:27;;;;;;;14.65;4.17;;;;;;;20.00;54.80;101585.77;1819265;78;27532;-65
2022/10/26 09:56:10;;;;;;;9.13;3.25;;;;;;;20.72;53.87;101579.13;1818678;78;26108;-65
2022/10/26 09:59:00;;;;;;;19.35;3.58;;;;;;;21.85;51.34;101574.22;1818272;78;25516;-63
2022/10/26 10:01:34;;;;;;;8.15;3.33;;;;;;;22.64;48.36;101573.41;1818591;78;25638;-65
2022/10/26 10:04:15;;;;;;;15.23;3.17;;;;;;;23.05;47.55;101574.58;1819149;78;25713;-64
2022/10/26 10:06:45;;;;;;;12.55;3.30;;;;;;;23.54;46.17;101581.55;1809932;78;28549;-64
2022/10/26 10:09:16;;;;;;;7.92;3.22;;;;;;;23.12;46.53;101577.38;1755793;81;25880;-66
2022/10/26 10:11:54;;;;;;;9.00;3.05;;;;;;;22.64;45.89;101578.02;1786642;80;25512;-64
2022/10/26 10:14:31;;;;;;;8.40;3.30;;;;;;;22.58;46.90;101579.69;1761462;78;25826;-65
2022/10/26 10:17:09;;;;;;;11.88;3.00;;;;;;;23.38;46.63;101579.47;1821876;78;25798;-64
2022/10/26 10:19:38;;;;;;;11.57;3.10;;;;;;;23.95;44.97;101575.23;1762946;80;28002;-64
2022/10/26 10:22:22;;;;;;;10.05;2.98;;;;;;;23.24;43.02;101580.45;1786405;80;26145;-64
2022/10/26 10:25:01;;;;;;;7.47;2.45;;;;;;;23.03;44.88;101578.05;1791449;80;25750;-65
2022/10/26 10:27:32;;;;;;;11.40;2.50;;;;;;;23.23;45.65;101580.95;1764536;80;25559;-64
2022/10/26 10:30:21;;;;;;;8.58;2.80;;;;;;;23.11;45.14;101582.00;1792019;78;25754;-65
2022/10/26 10:33:09;;;;;;;6.33;2.27;;;;;;;22.74;44.72;101575.80;1792902;80;27608;-64
2022/10/26 10:35:41;;;;;;;6.30;2.40;;;;;;;22.38;44.66;101580.80;1773730;80;26347;-65
2022/10/26 10:38:15;;;;;;;8.73;2.43;;;;;;;21.88;45.50;101580.16;1785431;80;25733;-65
2022/10/26 10:40:53;;;;;;;8.35;3.00;;;;;;;21.52;46.14;101575.45;1786138;79;25817;-64
2022/10/26 10:43:21;;;;;;;5.72;2.30;;;;;;;21.20;46.41;101587.08;1786414;79;26927;-64
2022/10/26 10:45:52;;;;;;;6.00;2.42;;;;;;;20.94;47.06;101570.58;1786115;79;27608;-64
2022/10/26 10:48:29;;;;;;;4.72;2.42;;;;;;;20.87;47.18;101577.83;1787134;77;25860;-64
2022/10/26 10:51:03;;;;;;;12.63;2.80;;;;;;;20.81;47.52;101577.21;1801226;77;25794;-64
2022/10/26 10:53:48;;;;;;;8.73;2.67;;;;;;;20.80;47.73;101570.88;1795189;78;25740;-65
2022/10/26 10:56:48;;;;;;;6.90;2.80;;;;;;;20.71;47.70;101571.95;1803192;78;25756;-65
2022/10/26 10:59:50;;;;;;;9.48;2.40;;;;;;;20.73;48.04;101580.86;1788957;80;27452;-64
2022/10/26 11:03:06;;;;;;;4.15;2.80;;;;;;;20.79;47.77;101573.30;1788434;78;25786;-64
2022/10/26 11:05:53;;;;;;;8.68;3.87;;;;;;;20.71;47.41;101576.05;1821597;78;25759;-64
2022/10/26 11:08:43;;;;;;;7.42;2.42;;;;;;;20.63;48.05;101581.09;1816156;78;26382;-64
2022/10/26 11:11:35;;;;;;;7.75;2.62;;;;;;;20.58;48.15;101577.20;1789050;78;26462;-64
2022/10/26 11:14:19;;;;;;;5.53;2.60;;;;;;;20.62;48.24;101579.38;1788723;80;27456;-64
2022/10/26 11:16:54;;;;;;;7.33;2.75;;;;;;;20.66;48.23;101581.77;1788652;78;26244;-64
2022/10/26 11:19:30;;;;;;;6.83;2.15;;;;;;;20.82;48.09;101578.91;1787893;80;25985;-64
2022/10/26 11:21:57;;;;;;;9.10;2.45;;;;;;;20.95;47.58;101580.48;1788687;78;25927;-64
2022/10/26 11:24:50;;;;;;;7.75;2.58;;;;;;;21.05;46.65;101573.90;1785284;80;25885;-65
2022/10/26 11:27:31;;;;;;;13.28;2.47;;;;;;;21.10;46.76;101581.89;1793641;77;27488;-64
2022/10/26 11:30:16;;;;;;;6.47;2.67;;;;;;;21.30;46.03;101573.64;1818497;78;25888;-65
2022/10/26 11:32:55;;;;;;;7.67;2.62;;;;;;;21.28;46.86;101574.37;1819043;78;25799;-63
2022/10/26 11:35:41;;;;;;;7.15;2.65;;;;;;;21.21;46.79;101572.36;1812468;78;25492;-63
2022/10/26 11:38:38;;;;;;;12.28;2.50;;;;;;;21.16;46.54;101576.19;1818861;78;25776;-64
2022/10/26 11:41:45;;;;;;;8.98;2.00;;;;;;;21.13;46.32;101570.24;1818688;78;27935;-64
2022/10/26 11:44:19;;;;;;;10.50;1.85;;;;;;;21.05;46.92;101581.61;1818753;78;26202;-64
2022/10/26 11:47:15;;;;;;;4.70;1.70;;;;;;;21.09;46.57;101565.67;1818986;78;25783;-64
2022/10/26 11:50:24;;;;;;;4.58;1.90;;;;;;;20.99;45.95;101579.59;1789139;78;25821;-64
2022/10/26 11:52:58;;;;;;;2.95;1.42;;;;;;;20.57;45.57;101575.50;1786601;80;25745;-65
2022/10/26 11:55:27;;;;;;;4.40;1.52;;;;;;;20.28;47.00;101579.80;1786723;79;27468;-65